Time;durP1;ratioP1;P1;durP2;ratioP2;P2;SDS_P1;SDS_P2;PMS_P1;PMS_P2;Temp;Humidity;BMP_temperature;BMP_pressure;BME280_temperature;BME280_humidity;BME280_pressure;Samples;Min_cycle;Max_cycle;Signal;HPM_P1;HPM_P2
2022/06/15 00:02:43;;;;;;;;;;;;;;;12.00;75.19;100780.16;2718229;86;20425;-88
2022/06/15 00:06:44;;;;;;;;;;;;;;;11.97;75.71;100778.56;2666565;86;20163;-86
2022/06/15 00:10:45;;;;;;;;;;;;;;;11.95;75.52;100779.65;2686312;86;20140;-88
2022/06/15 00:14:46;;;;;;;;;;;;;;;11.95;75.33;100776.98;2715131;84;20152;-88
2022/06/15 00:18:48;;;;;;;;;;;;;;;11.91;74.81;100777.73;2662864;86;20166;-89
2022/06/15 00:22:49;;;;;;;;;;;;;;;11.85;75.31;100776.87;2684230;86;20105;-88
2022/06/15 00:26:50;;;;;;;;;;;;;;;11.80;74.83;100777.26;2662110;85;20142;-88
2022/06/15 00:30:51;;;;;;;;;;;;;;;11.70;75.15;100773.61;2659972;86;20293;-88
2022/06/15 00:34:51;;;;;;;;;;;;;;;11.67;75.13;100772.52;2687522;85;20135;-88
2022/06/15 00:38:55;;;;;;;;;;;;;;;11.64;75.37;100771.44;2703018;86;20177;-88
2022/06/15 00:42:56;;;;;;;;;;;;;;;11.60;75.50;100773.98;2688850;86;20230;-89
2022/06/15 00:47:16;;;;;;;;;;;;;;;11.58;75.59;100771.43;2680767;86;20120;-88
2022/06/15 00:51:17;;;;;;;;;;;;;;;11.55;76.27;100771.17;2676960;86;20132;-88
2022/06/15 00:55:25;;;;;;;;;;;;;;;11.36;77.13;100764.25;2647460;86;20573;-89
2022/06/15 00:59:30;;;;;;;;;;;;;;;11.20;77.26;100761.47;2655001;86;20190;-88
2022/06/15 01:03:32;;;;;;;;;;;;;;;11.16;77.09;100765.31;2679947;86;20121;-88
2022/06/15 01:07:53;;;;;;;;;;;;;;;11.16;77.49;100762.65;2659671;87;20155;-88
2022/06/15 01:12:07;;;;;;;;;;;;;;;11.18;77.95;100755.39;2673715;86;20350;-88
2022/06/15 01:16:24;;;;;;;;;;;;;;;11.20;78.09;100753.48;2650424;86;20127;-88
2022/06/15 01:20:47;;;;;;;;;;;;;;;11.22;77.91;100754.21;2666123;87;20141;-86
2022/06/15 01:24:57;;;;;;;;;;;;;;;11.21;77.76;100756.51;2667445;86;20163;-88
2022/06/15 01:29:21;;;;;;;;;;;;;;;11.22;76.94;100750.22;2693079;86;20106;-88
2022/06/15 01:33:29;;;;;;;;;;;;;;;11.17;76.71;100752.36;2687107;85;20470;-87
2022/06/15 01:37:58;;;;;;;;;;;;;;;11.09;76.88;100751.63;2689323;86;20162;-88
2022/06/15 01:42:05;;;;;;;;;;;;;;;11.06;76.91;100747.03;2708501;85;20142;-88
2022/06/15 01:46:06;;;;;;;;;;;;;;;11.06;77.34;100745.70;2656174;87;20102;-87
2022/06/15 01:50:10;;;;;;;;;;;;;;;11.09;77.80;100745.47;2674950;85;20177;-86
2022/06/15 01:54:15;;;;;;;;;;;;;;;11.13;78.19;100744.25;2643124;86;20155;-87
2022/06/15 01:58:18;;;;;;;;;;;;;;;11.15;78.06;100740.98;2656762;86;20136;-88
2022/06/15 02:02:23;;;;;;;;;;;;;;;11.13;77.77;100744.25;2655688;86;20154;-86
2022/06/15 02:06:37;;;;;;;;;;;;;;;11.15;78.00;100742.32;2660606;86;20165;-84
2022/06/15 02:10:48;;;;;;;;;;;;;;;11.15;78.27;100739.66;2654430;85;20170;-88
2022/06/15 02:14:52;;;;;;;;;;;;;;;11.17;78.12;100745.70;2681300;86;20473;-90
2022/06/15 02:18:55;;;;;;;;;;;;;;;11.16;78.16;100743.18;2634045;86;20574;-88
2022/06/15 02:23:01;;;;;;;;;;;;;;;11.16;78.75;100739.19;2684432;86;20455;-88
2022/06/15 02:27:05;;;;;;;;;;;;;;;11.13;78.76;100734.94;2675323;87;20099;-90
2022/06/15 02:31:06;;;;;;;;;;;;;;;11.11;78.98;100731.55;2680857;86;20150;-88
2022/06/15 02:35:08;;;;;;;;;;;;;;;11.13;79.05;100738.93;2680744;86;20124;-88
2022/06/15 02:39:10;;;;;;;;;;;;;;;11.00;77.22;100741.22;2685002;86;20146;-88
2022/06/15 02:43:12;;;;;;;;;;;;;;;10.75;76.96;100748.89;2693036;86;20636;-89
2022/06/15 02:47:14;;;;;;;;;;;;;;;10.53;76.95;100744.31;2665182;86;20143;-88
2022/06/15 02:51:42;;;;;;;;;;;;;;;10.38;77.60;100750.27;2664683;87;20113;-88
2022/06/15 02:55:44;;;;;;;;;;;;;;;10.26;78.87;100752.84;2649184;86;20135;-88
2022/06/15 02:59:46;;;;;;;;;;;;;;;10.27;79.34;100748.39;2662134;87;20528;-87
2022/06/15 03:03:48;;;;;;;;;;;;;;;10.33;80.00;100745.77;2669419;86;20158;-88
2022/06/15 03:07:50;;;;;;;;;;;;;;;10.39;79.89;100746.14;2669341;86;20145;-88
2022/06/15 03:11:51;;;;;;;;;;;;;;;10.36;81.01;100745.05;2689635;86;20171;-88
2022/06/15 03:16:00;;;;;;;;;;;;;;;10.43;81.70;100749.00;2655855;86;20162;-88
2022/06/15 03:20:02;;;;;;;;;;;;;;;10.57;82.16;100749.30;2681888;87;20140;-88
2022/06/15 03:24:04;;;;;;;;;;;;;;;10.74;82.32;100751.65;2696352;85;20140;-88
2022/06/15 03:28:05;;;;;;;;;;;;;;;10.82;82.49;100741.29;2659169;87;20099;-89
2022/06/15 03:32:07;;;;;;;;;;;;;;;10.98;82.30;100748.45;2676484;86;20146;-88
2022/06/15 03:36:08;;;;;;;;;;;;;;;11.12;82.24;100745.22;2660825;86;20489;-89
2022/06/15 03:40:11;;;;;;;;;;;;;;;11.24;81.97;100754.94;2670603;87;20160;-88
2022/06/15 03:44:12;;;;;;;;;;;;;;;11.39;81.92;100751.56;2667536;87;20124;-88
2022/06/15 03:48:13;;;;;;;;;;;;;;;11.51;81.73;100752.41;2696749;86;20112;-89
2022/06/15 03:52:16;;;;;;;;;;;;;;;11.58;81.73;100750.95;2655412;85;20141;-88
2022/06/15 03:56:17;;;;;;;;;;;;;;;11.68;81.63;100757.73;2669546;86;20567;-87
2022/06/15 04:00:20;;;;;;;;;;;;;;;11.76;81.78;100757.12;2687294;85;20167;-89
2022/06/15 04:04:21;;;;;;;;;;;;;;;11.86;81.92;100760.77;2664650;85;20513;-87
2022/06/15 04:08:34;;;;;;;;;;;;;;;12.02;82.26;100766.71;2628226;87;20186;-88
2022/06/15 04:12:35;;;;;;;;;;;;;;;12.14;82.44;100757.73;2662509;86;20136;-87
2022/06/15 04:16:36;;;;;;;;;;;;;;;12.38;82.89;100772.23;2705539;86;20603;-89
2022/06/15 04:20:40;;;;;;;;;;;;;;;12.81;83.79;100769.64;2651168;86;20192;-88
2022/06/15 04:24:41;;;;;;;;;;;;;;;13.68;84.79;100764.97;2638167;88;20186;-89
2022/06/15 04:28:43;;;;;;;;;;;;;;;14.91;82.69;100764.27;2608325;88;20148;-89
2022/06/15 04:32:44;;;;;;;;;;;;;;;16.24;78.77;100764.73;2587675;89;20137;-88
2022/06/15 04:36:46;;;;;;;;;;;;;;;17.51;72.70;100757.39;2592976;89;20160;-89
2022/06/15 04:40:47;;;;;;;;;;;;;;;18.69;69.74;100757.08;2627074;87;20132;-89
2022/06/15 04:44:48;;;;;;;;;;;;;;;19.70;64.10;100756.75;2654105;87;20147;-88
2022/06/15 04:48:49;;;;;;;;;;;;;;;20.49;60.93;100756.88;2598076;90;20138;-88
2022/06/15 04:52:50;;;;;;;;;;;;;;;21.18;58.89;100758.67;2605530;88;20135;-86
2022/06/15 04:56:51;;;;;;;;;;;;;;;21.73;57.26;100765.73;2607466;88;20225;-88
2022/06/15 05:00:52;;;;;;;;;;;;;;;22.33;56.92;100763.73;2618987;89;20194;-89
2022/06/15 05:04:55;;;;;;;;;;;;;;;22.89;54.49;100765.41;2586637;89;20188;-89
2022/06/15 05:08:56;;;;;;;;;;;;;;;23.28;52.74;100757.81;2562026;90;20193;-88
2022/06/15 05:12:57;;;;;;;;;;;;;;;23.59;52.46;100760.62;2581096;90;20182;-89
2022/06/15 05:16:58;;;;;;;;;;;;;;;23.82;52.29;100754.36;2672906;86;20573;-89
2022/06/15 05:21:00;;;;;;;;;;;;;;;24.00;52.16;100755.69;2550703;89;20184;-89
2022/06/15 05:25:01;;;;;;;;;;;;;;;24.11;52.26;100752.92;2593407;88;20226;-89
2022/06/15 05:29:03;;;;;;;;;;;;;;;24.25;52.18;100757.87;2577025;88;20162;-87
2022/06/15 05:33:04;;;;;;;;;;;;;;;24.35;51.39;100747.42;2576067;89;20440;-88
2022/06/15 05:37:05;;;;;;;;;;;;;;;24.28;50.40;100743.86;2578198;91;20181;-86
2022/06/15 05:41:07;;;;;;;;;;;;;;;24.33;51.77;100742.72;2596405;89;20625;-88
2022/06/15 05:45:09;;;;;;;;;;;;;;;24.36;51.07;100746.38;2580586;88;20211;-89
2022/06/15 05:49:10;;;;;;;;;;;;;;;24.35;50.87;100747.42;2587861;88;20136;-88
2022/06/15 05:53:12;;;;;;;;;;;;;;;24.42;49.76;100751.52;2608958;89;20101;-89
2022/06/15 05:57:16;;;;;;;;;;;;;;;24.67;50.55;100751.77;2628210;88;20722;-89
2022/06/15 06:01:26;;;;;;;;;;;;;;;24.83;49.49;100752.43;2588056;89;20167;-89
2022/06/15 06:05:27;;;;;;;;;;;;;;;25.07;49.33;100744.66;2586655;90;20126;-89
2022/06/15 06:09:28;;;;;;;;;;;;;;;25.43;49.21;100741.98;2564700;88;20121;-89
2022/06/15 06:13:29;;;;;;;;;;;;;;;25.66;48.61;100731.14;2580617;89;20112;-90
2022/06/15 06:17:30;;;;;;;;;;;;;;;25.75;48.05;100724.42;2593873;89;20119;-90
2022/06/15 06:21:31;;;;;;;;;;;;;;;25.68;49.01;100733.67;2604077;89;20111;-89
2022/06/15 06:25:32;;;;;;;;;;;;;;;26.00;49.09;100733.71;2586622;90;20151;-89
2022/06/15 06:29:34;;;;;;;;;;;;;;;25.94;48.31;100732.17;2593559;89;20162;-87
2022/06/15 06:33:36;;;;;;;;;;;;;;;26.17;47.23;100731.36;2606460;89;20420;-88
2022/06/15 06:37:38;;;;;;;;;;;;;;;26.31;47.01;100730.20;2658482;87;20135;-88
2022/06/15 06:41:39;;;;;;;;;;;;;;;26.42;46.11;100737.38;2677573;86;20144;-88
2022/06/15 06:45:40;;;;;;;;;;;;;;;26.50;45.41;100731.64;2649904;87;20164;-88
2022/06/15 06:49:41;;;;;;;;;;;;;;;26.36;45.55;100733.13;2682172;84;20149;-87
2022/06/15 06:53:43;;;;;;;;;;;;;;;26.42;44.68;100728.66;2702088;85;20198;-89
2022/06/15 06:57:44;;;;;;;;;;;;;;;26.31;44.70;100734.29;2699646;86;20376;-89
2022/06/15 07:01:46;;;;;;;;;;;;;;;26.36;44.21;100734.48;2690001;84;20146;-85
2022/06/15 07:05:47;;;;;;;;;;;;;;;26.36;44.69;100729.55;2692688;84;20496;-88
2022/06/15 07:09:48;;;;;;;;;;;;;;;26.08;42.30;100731.56;2693238;85;20128;-89
2022/06/15 07:13:49;;;;;;;;;;;;;;;25.70;43.72;100726.93;2697192;85;20629;-87
2022/06/15 07:17:50;;;;;;;;;;;;;;;25.45;43.53;100725.41;2647714;86;20478;-87
2022/06/15 07:21:51;;;;;;;;;;;;;;;25.37;44.32;100723.78;2555651;90;21233;-87
2022/06/15 07:25:52;;;;;;;;;;;;;;;25.26;43.42;100725.28;2660349;87;20165;-88
2022/06/15 07:29:55;;;;;;;;;;;;;;;25.29;43.72;100720.77;2654463;88;20619;-89
2022/06/15 07:33:56;;;;;;;;;;;;;;;25.23;43.84;100719.73;2639816;88;20110;-88
2022/06/15 07:37:58;;;;;;;;;;;;;;;24.93;44.41;100722.90;2663377;89;20843;-86
2022/06/15 07:41:59;;;;;;;;;;;;;;;24.98;44.13;100726.90;2615982;89;20185;-88
2022/06/15 07:46:00;;;;;;;;;;;;;;;25.17;44.84;100721.95;2649897;88;20166;-87
2022/06/15 07:50:01;;;;;;;;;;;;;;;25.32;43.89;100726.29;2614280;87;20117;-90
2022/06/15 07:54:05;;;;;;;;;;;;;;;25.45;44.07;100721.33;2650323;85;20150;-88
2022/06/15 07:58:07;;;;;;;;;;;;;;;25.47;43.74;100721.47;2682415;86;20124;-88
2022/06/15 08:02:08;;;;;;;;;;;;;;;25.60;44.52;100715.13;2669848;87;20477;-87
2022/06/15 08:06:10;;;;;;;;;;;;;;;25.63;43.67;100710.61;2676075;86;20157;-86
2022/06/15 08:10:17;;;;;;;;;;;;;;;25.66;45.39;100714.80;2693399;86;20133;-87
2022/06/15 08:14:18;;;;;;;;;;;;;;;25.77;43.08;100711.41;2564662;88;20133;-87
2022/06/15 08:18:25;;;;;;;;;;;;;;;25.75;43.99;100705.86;2659217;89;20130;-88
2022/06/15 08:22:26;;;;;;;;;;;;;;;25.93;43.87;100705.13;2643604;89;20220;-87
2022/06/15 08:26:33;;;;;;;;;;;;;;;26.05;43.80;100707.48;2644099;89;20225;-88
2022/06/15 08:30:36;;;;;;;;;;;;;;;26.25;43.04;100698.91;2652082;88;20155;-85
2022/06/15 08:34:39;;;;;;;;;;;;;;;26.16;43.28;100696.95;2630406;89;20227;-91
2022/06/15 08:38:40;;;;;;;;;;;;;;;26.17;42.74;100689.11;2610554;89;20166;-86
2022/06/15 08:42:54;;;;;;;;;;;;;;;26.23;42.82;100689.58;2637271;86;20165;-85
2022/06/15 08:47:05;;;;;;;;;;;;;;;26.17;43.50;100682.30;2689249;86;20565;-89
2022/06/15 08:51:15;;;;;;;;;;;;;;;26.37;42.68;100688.44;2673816;86;20124;-89
2022/06/15 08:55:38;;;;;;;;;;;;;;;26.32;42.03;100681.42;2652306;86;20110;-88
2022/06/15 08:59:43;;;;;;;;;;;;;;;26.26;41.81;100684.22;2657542;86;20172;-86
2022/06/15 09:04:14;;;;;;;;;;;;;;;26.36;45.06;100679.95;2660966;86;20097;-85
2022/06/15 09:08:25;;;;;;;;;;;;;;;26.52;42.55;100681.80;2669387;87;20102;-89
2022/06/15 09:12:53;;;;;;;;;;;;;;;26.54;42.34;100676.98;2681193;85;20204;-88
2022/06/15 09:17:06;;;;;;;;;;;;;;;26.61;42.32;100678.26;2693888;87;20133;-87
2022/06/15 09:21:24;;;;;;;;;;;;;;;26.58;41.47;100671.89;2662589;86;20149;-87
2022/06/15 09:25:41;;;;;;;;;;;;;;;26.16;44.54;100657.42;2676516;86;20201;-85
2022/06/15 09:29:46;;;;;;;;;;;;;;;26.18;43.21;100676.60;2696935;86;20120;-87
2022/06/15 09:33:57;;;;;;;;;;;;;;;26.34;43.24;100668.95;2640302;88;30311;-87
2022/06/15 09:38:01;;;;;;;;;;;;;;;26.19;42.41;100658.38;2646197;86;20151;-86
2022/06/15 09:42:23;;;;;;;;;;;;;;;25.98;44.74;100656.28;2642126;86;20134;-88
2022/06/15 09:46:50;;;;;;;;;;;;;;;26.17;43.91;100650.95;2680149;87;20111;-86
2022/06/15 09:50:54;;;;;;;;;;;;;;;26.36;43.19;100647.23;2667607;86;20159;-85
2022/06/15 09:55:18;;;;;;;;;;;;;;;26.41;41.45;100636.17;2683326;85;20239;-85
2022/06/15 09:59:21;;;;;;;;;;;;;;;26.38;41.93;100644.27;2679563;85;20093;-84
2022/06/15 10:03:29;;;;;;;;;;;;;;;26.33;41.66;100646.83;2578627;89;20132;-86
2022/06/15 10:07:35;;;;;;;;;;;;;;;26.25;41.37;100644.39;2564484;90;20266;-88
2022/06/15 10:11:43;;;;;;;;;;;;;;;26.21;41.97;100641.27;2607030;89;20199;-84
2022/06/15 10:15:48;;;;;;;;;;;;;;;26.22;42.39;100635.56;2606814;88;20103;-85
2022/06/15 10:19:50;;;;;;;;;;;;;;;26.29;42.85;100637.42;2596169;88;20149;-88
2022/06/15 10:23:55;;;;;;;;;;;;;;;26.41;44.14;100636.99;2614722;88;20105;-85
2022/06/15 10:28:14;;;;;;;;;;;;;;;26.53;41.56;100631.67;2598117;89;20261;-86
2022/06/15 10:32:18;;;;;;;;;;;;;;;26.59;43.71;100627.19;2549439;91;20140;-87
2022/06/15 10:36:31;;;;;;;;;;;;;;;26.47;40.01;100626.58;2541732;92;20149;-88
2022/06/15 10:40:34;;;;;;;;;;;;;;;26.49;40.12;100631.27;2609607;89;20101;-86
2022/06/15 10:44:41;;;;;;;;;;;;;;;26.52;40.53;100622.64;2582710;90;20222;-86
2022/06/15 10:48:49;;;;;;;;;;;;;;;26.50;41.17;100619.82;2596780;88;20148;-88
2022/06/15 10:52:56;;;;;;;;;;;;;;;26.55;41.09;100617.28;2603849;89;20443;-87
2022/06/15 11:05:59;;;;;;;;;;;;;;;26.59;40.99;100603.48;2454810;94;20131;-87
2022/06/15 11:10:04;;;;;;;;;;;;;;;26.58;40.33;100596.36;2444587;95;20152;-84
2022/06/15 11:14:07;;;;;;;;;;;;;;;26.55;40.08;100601.42;2444096;95;20589;-85
2022/06/15 11:18:12;;;;;;;;;;;;;;;26.55;40.97;100594.61;2466628;93;20479;-88
2022/06/15 11:22:15;;;;;;;;;;;;;;;26.59;42.13;100595.30;2460903;94;20147;-84
2022/06/15 11:26:57;;;;;;;;;;;;;;;26.59;41.06;100589.85;2470256;93;20108;-84
2022/06/15 11:31:02;;;;;;;;;;;;;;;26.59;41.52;100596.67;2456949;94;20191;-88
2022/06/15 11:35:06;;;;;;;;;;;;;;;26.65;39.73;100579.94;2490070;93;20629;-87
2022/06/15 11:39:17;;;;;;;;;;;;;;;26.71;41.40;100582.27;2655919;87;20153;-88
2022/06/15 11:43:31;;;;;;;;;;;;;;;26.77;40.50;100578.11;2664116;87;20108;-87
2022/06/15 11:47:48;;;;;;;;;;;;;;;26.94;42.62;100575.66;2690304;85;20093;-88
2022/06/15 11:52:11;;;;;;;;;;;;;;;27.08;41.86;100576.84;2669827;87;20104;-86
2022/06/15 11:56:15;;;;;;;;;;;;;;;27.16;41.60;100572.45;2566711;90;20161;-85
2022/06/15 12:00:26;;;;;;;;;;;;;;;27.20;43.26;100566.82;2562289;91;20148;-88
2022/06/15 12:04:43;;;;;;;;;;;;;;;27.31;41.62;100567.94;2524496;92;20185;-87
2022/06/15 12:08:48;;;;;;;;;;;;;;;27.45;41.33;100559.02;2531887;92;20173;-87
2022/06/15 12:12:55;;;;;;;;;;;;;;;27.46;40.60;100568.88;2449507;96;20145;-87
2022/06/15 12:17:06;;;;;;;;;;;;;;;27.51;41.09;100562.25;2459467;94;20147;-90
2022/06/15 12:21:14;;;;;;;;;;;;;;;27.60;41.06;100564.63;2506811;92;20131;-92
2022/06/15 12:25:24;;;;;;;;;;;;;;;27.59;39.94;100564.34;2495680;92;20145;-88
2022/06/15 12:29:32;;;;;;;;;;;;;;;27.68;41.38;100558.83;2505772;92;20247;-88
2022/06/15 12:33:39;;;;;;;;;;;;;;;27.67;40.02;100545.41;2457675;94;20491;-89
2022/06/15 12:37:44;;;;;;;;;;;;;;;27.77;41.41;100549.24;2478573;94;20243;-89
2022/06/15 12:46:12;;;;;;;;;;;;;;;28.03;39.95;100551.23;2518330;92;20166;-87
2022/06/15 12:50:35;;;;;;;;;;;;;;;28.04;40.15;100539.23;2616235;86;20151;-85
2022/06/15 12:54:40;;;;;;;;;;;;;;;28.00;39.45;100539.92;2677949;85;20466;-87
2022/06/15 12:59:06;;;;;;;;;;;;;;;27.99;39.14;100537.74;2665451;86;20175;-85
2022/06/15 13:03:47;;;;;;;;;;;;;;;27.99;38.86;100539.11;2666708;86;20193;-88
2022/06/15 13:08:16;;;;;;;;;;;;;;;27.98;38.81;100529.77;2666625;86;20125;-87
2022/06/15 13:12:17;;;;;;;;;;;;;;;28.03;41.23;100523.08;2619450;89;20141;-87
2022/06/15 13:16:40;;;;;;;;;;;;;;;28.18;40.51;100519.89;2536221;90;20462;-87
2022/06/15 13:20:53;;;;;;;;;;;;;;;28.17;37.94;100514.13;2550102;90;20133;-91
2022/06/15 13:25:06;;;;;;;;;;;;;;;28.22;38.43;100509.62;2537290;91;20188;-87
2022/06/15 13:29:15;;;;;;;;;;;;;;;28.31;40.20;100513.34;2590358;88;20148;-87
2022/06/15 13:33:17;;;;;;;;;;;;;;;28.34;38.93;100504.66;2580356;89;20188;-88
2022/06/15 13:37:25;;;;;;;;;;;;;;;28.35;38.79;100494.02;2600168;89;20131;-88
2022/06/15 13:41:28;;;;;;;;;;;;;;;28.45;39.73;100494.77;2628668;87;20145;-89
2022/06/15 13:45:33;;;;;;;;;;;;;;;28.60;39.24;100486.90;2652482;86;20134;-89
2022/06/15 13:49:37;;;;;;;;;;;;;;;28.79;39.05;100489.47;2665621;86;20102;-88
2022/06/15 13:53:54;;;;;;;;;;;;;;;28.95;40.81;100489.81;2677651;86;20237;-88
2022/06/15 13:58:08;;;;;;;;;;;;;;;29.06;40.22;100476.59;2660851;87;20097;-89
2022/06/15 14:02:24;;;;;;;;;;;;;;;29.22;38.79;100473.06;2683842;86;20127;-89
2022/06/15 14:06:30;;;;;;;;;;;;;;;29.31;38.25;100457.62;2644291;87;20540;-87
2022/06/15 14:11:00;;;;;;;;;;;;;;;29.43;38.87;100464.42;2633272;87;20130;-86
2022/06/15 14:15:29;;;;;;;;;;;;;;;29.36;37.44;100457.70;2675781;85;20112;-87
2022/06/15 14:19:36;;;;;;;;;;;;;;;29.46;39.12;100455.70;2581771;90;20126;-88
2022/06/15 14:23:38;;;;;;;;;;;;;;;29.37;39.49;100452.51;2589080;90;20196;-88
2022/06/15 14:27:39;;;;;;;;;;;;;;;28.98;39.78;100449.06;2584222;89;20125;-87
2022/06/15 14:31:43;;;;;;;;;;;;;;;28.82;38.94;100447.95;2504496;92;20170;-87
2022/06/15 14:35:44;;;;;;;;;;;;;;;28.56;38.71;100447.42;2549316;90;20135;-87
2022/06/15 14:39:48;;;;;;;;;;;;;;;28.46;40.15;100452.66;2517225;92;20756;-88
2022/06/15 14:43:51;;;;;;;;;;;;;;;28.51;39.05;100452.80;2581838;90;20164;-87
2022/06/15 14:47:56;;;;;;;;;;;;;;;28.72;39.31;100449.92;2595695;89;20153;-88
2022/06/15 14:52:20;;;;;;;;;;;;;;;28.73;39.01;100443.92;2591431;90;20115;-86
2022/06/15 14:56:25;;;;;;;;;;;;;;;28.48;39.96;100444.52;2616334;87;20182;-88
2022/06/15 15:00:31;;;;;;;;;;;;;;;28.11;40.10;100435.22;2594405;90;20124;-89
2022/06/15 15:04:35;;;;;;;;;;;;;;;28.08;39.87;100428.87;2608056;88;20141;-90
2022/06/15 15:08:42;;;;;;;;;;;;;;;28.22;40.55;100421.27;2688570;86;20131;-86
2022/06/15 15:12:44;;;;;;;;;;;;;;;28.19;41.26;100417.66;2676735;85;20135;-88
2022/06/15 15:16:57;;;;;;;;;;;;;;;28.03;41.97;100416.46;2680704;85;20145;-85
2022/06/15 15:20:59;;;;;;;;;;;;;;;28.17;42.74;100417.06;2700782;85;20121;-86
2022/06/15 15:25:05;;;;;;;;;;;;;;;28.17;41.39;100404.76;2680218;86;20583;-84
2022/06/15 15:37:50;;;;;;;;;;;;;;;28.50;39.81;100397.79;2662959;87;20119;-86
2022/06/15 15:41:51;;;;;;;;;;;;;;;28.51;40.43;100404.37;2688518;86;20135;-86
2022/06/15 15:45:53;;;;;;;;;;;;;;;28.44;42.78;100396.84;2675839;86;20113;-88
2022/06/15 15:49:54;;;;;;;;;;;;;;;28.49;41.39;100394.73;2641650;87;20142;-87
2022/06/15 15:53:55;;;;;;;;;;;;;;;28.59;42.74;100385.37;2591556;86;20169;-87
2022/06/15 15:57:58;;;;;;;;;;;;;;;28.71;41.34;100385.87;2619635;87;20139;-87
2022/06/15 16:01:59;;;;;;;;;;;;;;;28.79;41.18;100379.98;2662718;86;20137;-86
2022/06/15 16:06:00;;;;;;;;;;;;;;;28.88;41.99;100385.93;2678481;86;20181;-89
2022/06/15 16:10:05;;;;;;;;;;;;;;;28.95;42.41;100381.67;2645985;86;20171;-88
2022/06/15 16:14:06;;;;;;;;;;;;;;;28.95;43.02;100377.02;2659965;87;20175;-89
2022/06/15 16:18:08;;;;;;;;;;;;;;;28.78;41.53;100373.67;2683607;85;20174;-89
2022/06/15 16:22:09;;;;;;;;;;;;;;;28.59;41.74;100370.32;2680483;85;20120;-88
2022/06/15 16:26:11;;;;;;;;;;;;;;;28.41;42.74;100373.24;2694777;86;20128;-89
2022/06/15 16:30:14;;;;;;;;;;;;;;;28.25;42.57;100369.37;2671582;86;20282;-90
2022/06/15 16:34:15;;;;;;;;;;;;;;;28.19;44.18;100372.53;2700897;85;20132;-91
2022/06/15 16:38:16;;;;;;;;;;;;;;;28.21;42.32;100369.02;2705866;85;20108;-90
2022/06/15 16:42:18;;;;;;;;;;;;;;;28.13;42.11;100363.91;2703150;86;20155;-91
2022/06/15 16:46:21;;;;;;;;;;;;;;;28.03;43.55;100367.25;2702193;86;20158;-88
2022/06/15 16:50:22;;;;;;;;;;;;;;;27.86;43.24;100358.94;2694201;86;20114;-91
2022/06/15 16:54:25;;;;;;;;;;;;;;;27.69;44.35;100356.12;2698155;84;20149;-91
2022/06/15 16:58:27;;;;;;;;;;;;;;;27.46;44.05;100355.84;2695542;85;20423;-90
2022/06/15 17:02:28;;;;;;;;;;;;;;;27.30;44.39;100357.90;2700144;85;20138;-87
2022/06/15 17:06:31;;;;;;;;;;;;;;;27.16;45.38;100356.77;2702250;85;20160;-89
2022/06/15 17:10:34;;;;;;;;;;;;;;;27.03;44.80;100352.87;2683827;85;20097;-88
2022/06/15 17:14:35;;;;;;;;;;;;;;;26.84;44.83;100357.01;2683445;85;20157;-89
2022/06/15 17:18:37;;;;;;;;;;;;;;;26.65;46.14;100352.16;2680826;86;20175;-91
2022/06/15 17:22:39;;;;;;;;;;;;;;;26.59;46.90;100359.36;2690838;85;20109;-87
2022/06/15 17:26:44;;;;;;;;;;;;;;;26.49;47.08;100354.45;2676702;85;20140;-89
2022/06/15 17:30:47;;;;;;;;;;;;;;;26.44;47.03;100350.23;2661708;84;20165;-85
2022/06/15 17:34:48;;;;;;;;;;;;;;;26.36;47.38;100348.66;2673058;86;20190;-88
2022/06/15 17:38:50;;;;;;;;;;;;;;;26.25;47.78;100351.32;2669982;86;20395;-87
2022/06/15 17:42:52;;;;;;;;;;;;;;;26.19;48.18;100352.52;2681419;85;20110;-87
2022/06/15 17:46:53;;;;;;;;;;;;;;;26.10;47.97;100346.50;2665315;87;20194;-89
2022/06/15 17:50:54;;;;;;;;;;;;;;;26.01;48.28;100349.25;2693107;86;20138;-86
2022/06/15 17:54:55;;;;;;;;;;;;;;;26.01;48.66;100344.31;2668842;86;20458;-86
2022/06/15 17:58:56;;;;;;;;;;;;;;;25.95;49.40;100338.72;2688387;84;20104;-90
2022/06/15 18:02:58;;;;;;;;;;;;;;;25.84;50.14;100338.64;2664187;86;20117;-88
2022/06/15 18:06:59;;;;;;;;;;;;;;;25.65;49.65;100341.34;2705398;85;20691;-87
2022/06/15 18:11:04;;;;;;;;;;;;;;;25.50;50.65;100335.72;2688419;85;20158;-91
2022/06/15 18:15:06;;;;;;;;;;;;;;;25.36;50.48;100328.17;2602922;88;20189;-86
2022/06/15 18:19:16;;;;;;;;;;;;;;;25.26;51.17;100328.37;2682867;86;20643;-88
2022/06/15 18:23:18;;;;;;;;;;;;;;;25.08;51.44;100325.90;2664039;87;20164;-89
2022/06/15 18:27:19;;;;;;;;;;;;;;;24.97;52.03;100330.71;2685270;86;20146;-86
2022/06/15 18:31:20;;;;;;;;;;;;;;;24.78;52.49;100322.47;2653391;87;20125;-89
2022/06/15 18:35:29;;;;;;;;;;;;;;;24.59;53.37;100323.70;2697012;86;20137;-91
2022/06/15 18:39:31;;;;;;;;;;;;;;;24.41;53.80;100327.66;2695178;86;20141;-90
2022/06/15 18:47:52;;;;;;;;;;;;;;;24.09;54.90;100321.09;2716363;85;20110;-90
2022/06/15 18:51:54;;;;;;;;;;;;;;;23.84;56.22;100325.00;2699705;85;20106;-87
2022/06/15 18:55:55;;;;;;;;;;;;;;;23.66;57.02;100323.78;2682294;85;20146;-91
2022/06/15 18:59:59;;;;;;;;;;;;;;;23.56;57.55;100327.98;2642949;86;20441;-88
2022/06/15 19:04:00;;;;;;;;;;;;;;;23.44;58.26;100332.71;2706768;86;20124;-90
2022/06/15 19:08:02;;;;;;;;;;;;;;;23.27;58.12;100336.89;2666096;86;20156;-88
2022/06/15 19:12:04;;;;;;;;;;;;;;;23.06;57.96;100342.26;2582860;88;20116;-89
2022/06/15 19:16:05;;;;;;;;;;;;;;;22.89;57.27;100345.91;2581248;89;20172;-85
2022/06/15 19:20:09;;;;;;;;;;;;;;;22.74;57.53;100348.80;2633291;87;20128;-91
2022/06/15 19:24:10;;;;;;;;;;;;;;;22.57;58.33;100355.09;2684223;86;20170;-91
2022/06/15 19:28:11;;;;;;;;;;;;;;;22.47;58.63;100356.02;2679289;86;20628;-90
2022/06/15 19:32:12;;;;;;;;;;;;;;;22.31;58.75;100358.00;2666836;86;20100;-91
2022/06/15 19:36:13;;;;;;;;;;;;;;;22.18;59.99;100360.64;2682307;87;20129;-91
2022/06/15 19:40:17;;;;;;;;;;;;;;;21.97;60.34;100361.90;2675126;86;20374;-90
2022/06/15 19:44:18;;;;;;;;;;;;;;;21.78;60.25;100362.08;2690452;86;20105;-92
2022/06/15 19:48:20;;;;;;;;;;;;;;;21.63;60.57;100358.10;2713875;85;21186;-87
2022/06/15 19:52:21;;;;;;;;;;;;;;;21.44;61.70;100362.34;2711460;86;20125;-89
2022/06/15 19:56:24;;;;;;;;;;;;;;;21.19;61.79;100358.68;2652511;87;20193;-89
2022/06/15 20:00:25;;;;;;;;;;;;;;;21.06;61.95;100363.98;2578626;88;20104;-88
2022/06/15 20:04:27;;;;;;;;;;;;;;;20.93;62.04;100359.25;2664124;86;20140;-88
2022/06/15 20:08:28;;;;;;;;;;;;;;;20.80;62.16;100357.26;2701263;85;20132;-86
2022/06/15 20:12:29;;;;;;;;;;;;;;;20.74;62.35;100353.95;2683692;86;20142;-88
2022/06/15 20:16:36;;;;;;;;;;;;;;;20.62;62.95;100357.13;2707473;86;20104;-87
2022/06/15 20:20:40;;;;;;;;;;;;;;;20.45;63.18;100353.83;2702440;85;20499;-87
2022/06/15 20:24:42;;;;;;;;;;;;;;;20.24;63.99;100357.30;2705388;86;20394;-90
2022/06/15 20:28:45;;;;;;;;;;;;;;;20.06;64.01;100358.55;2643217;86;20844;-90
2022/06/15 20:32:46;;;;;;;;;;;;;;;19.90;64.97;100357.34;2699485;87;20138;-90
2022/06/15 20:36:47;;;;;;;;;;;;;;;19.71;65.25;100358.22;2578622;89;20142;-94
2022/06/15 20:40:49;;;;;;;;;;;;;;;19.59;65.30;100353.78;2643437;88;20153;-93
2022/06/15 20:44:50;;;;;;;;;;;;;;;19.48;65.49;100355.07;2615043;85;20174;-91
2022/06/15 20:48:52;;;;;;;;;;;;;;;19.42;65.81;100355.78;2671669;85;20104;-89
2022/06/15 20:52:55;;;;;;;;;;;;;;;19.30;65.84;100355.37;2678367;87;20157;-88
2022/06/15 20:56:56;;;;;;;;;;;;;;;19.24;66.16;100359.63;2701915;86;20125;-88
2022/06/15 21:00:57;;;;;;;;;;;;;;;19.18;66.06;100361.72;2702769;85;20098;-88
2022/06/15 21:04:58;;;;;;;;;;;;;;;19.07;66.19;100362.98;2681662;86;20142;-88
2022/06/15 21:09:01;;;;;;;;;;;;;;;18.97;66.25;100364.53;2689751;86;20510;-88
2022/06/15 21:21:34;;;;;;;;;;;;;;;18.82;66.25;100375.74;2623578;89;20153;-87
2022/06/15 21:25:35;;;;;;;;;;;;;;;18.75;66.75;100370.22;2584955;90;20128;-88
2022/06/15 21:29:36;;;;;;;;;;;;;;;18.69;66.66;100373.14;2585435;90;20544;-88
2022/06/15 21:33:38;;;;;;;;;;;;;;;18.63;67.27;100376.52;2558356;91;20130;-87